createdAt,value
2024-04-04T00:00:41.531Z,0.00
2024-04-04T00:01:41.517Z,0.00
2024-04-04T00:02:41.426Z,0.00
2024-04-04T00:03:41.442Z,0.00
2024-04-04T00:04:41.337Z,0.00
2024-04-04T00:05:41.328Z,0.00
2024-04-04T00:06:41.255Z,0.00
2024-04-04T00:07:41.221Z,0.00
2024-04-04T00:08:41.283Z,0.00
2024-04-04T00:09:41.218Z,0.00
2024-04-04T00:10:41.088Z,0.00
2024-04-04T00:11:41.037Z,0.00
2024-04-04T00:12:40.992Z,0.00
2024-04-04T00:13:40.944Z,0.00
2024-04-04T15:57:25.427Z,6552.00
2024-04-04T15:58:25.459Z,6164.00
2024-04-04T15:59:25.324Z,10588.00
2024-04-04T16:00:25.281Z,3992.00
2024-04-04T16:01:25.311Z,5460.00
2024-04-04T16:02:25.187Z,5892.00
2024-04-04T16:03:25.139Z,5528.00
2024-04-04T16:04:25.188Z,3404.00
2024-04-04T16:06:12.440Z,4652.00
2024-04-04T16:07:12.397Z,4688.00
2024-04-04T16:08:12.356Z,4248.00
2024-04-04T16:09:12.311Z,3040.00
2024-04-04T16:10:13.513Z,2128.00
2024-04-04T16:11:12.224Z,2156.00
2024-04-04T16:12:12.186Z,2192.00
2024-04-04T16:13:12.196Z,2332.00
2024-04-04T16:14:12.101Z,2100.00
2024-04-04T16:15:12.059Z,1932.00
2024-04-04T16:16:12.029Z,2136.00
2024-04-04T16:17:11.980Z,3244.00
2024-04-04T16:18:11.938Z,9484.00
2024-04-04T16:19:11.896Z,4336.00
2024-04-04T16:20:11.881Z,3708.00
2024-04-04T16:21:14.432Z,2936.00
2024-04-04T16:22:11.774Z,2228.00
2024-04-04T16:23:11.741Z,1920.00
2024-04-04T16:24:11.693Z,2448.00
2024-04-04T16:25:11.652Z,9628.00
2024-04-04T16:26:11.606Z,6436.00
2024-04-04T16:27:11.565Z,13880.00
2024-04-04T16:28:11.520Z,11848.00
2024-04-04T16:29:11.485Z,6184.00
2024-04-04T16:30:11.447Z,6492.00
2024-04-04T16:31:11.392Z,10012.00
2024-04-04T16:32:11.359Z,4512.00
2024-04-04T16:33:11.320Z,3252.00
2024-04-04T16:34:11.270Z,9380.00
2024-04-04T16:35:11.233Z,14720.00
2024-04-04T16:36:11.194Z,13340.00
2024-04-04T16:37:11.148Z,17280.00
2024-04-04T16:38:11.106Z,7056.00
2024-04-04T16:39:11.064Z,5148.00
2024-04-04T16:40:11.031Z,3888.00
2024-04-04T16:41:11.040Z,3156.00
2024-04-04T16:42:10.937Z,2536.00
2024-04-04T16:43:10.899Z,1908.00
2024-04-04T16:44:10.855Z,1936.00
2024-04-04T16:45:10.828Z,1528.00
2024-04-04T16:46:10.768Z,1004.00
2024-04-04T16:47:10.732Z,1012.00
2024-04-04T16:48:10.723Z,1320.00
2024-04-04T16:49:10.649Z,2312.00
2024-04-04T16:50:10.609Z,3880.00
2024-04-04T16:51:10.565Z,3644.00
2024-04-04T16:52:10.539Z,2756.00
2024-04-04T16:53:10.487Z,2120.00
2024-04-04T16:54:10.435Z,1592.00
2024-04-04T16:55:10.392Z,1148.00
2024-04-04T16:56:10.362Z,952.00
2024-04-04T16:57:10.308Z,828.00
2024-04-04T16:58:10.274Z,656.00
2024-04-04T16:59:10.229Z,496.00
2024-04-04T17:00:10.190Z,384.00
2024-04-04T17:01:10.163Z,308.00
2024-04-04T17:02:10.102Z,232.00
2024-04-04T17:03:10.057Z,180.00
2024-04-04T17:05:09.982Z,120.00
2024-04-04T17:06:12.964Z,100.00
2024-04-04T17:07:09.911Z,88.00
